sensor_id;sensor_type;location;lat;lon;timestamp;temperature;humidity
43991;DHT22;29654;50.784;20.604;2023-04-06T00:01:25;5.40;45.40
43991;DHT22;29654;50.784;20.604;2023-04-06T00:06:28;5.30;45.40
43991;DHT22;29654;50.784;20.604;2023-04-06T00:11:32;5.30;45.50
43991;DHT22;29654;50.784;20.604;2023-04-06T00:16:35;5.20;45.60
43991;DHT22;29654;50.784;20.604;2023-04-06T00:21:37;5.20;45.60
43991;DHT22;29654;50.784;20.604;2023-04-06T00:26:41;5.20;45.60
43991;DHT22;29654;50.784;20.604;2023-04-06T00:31:44;5.20;45.60
43991;DHT22;29654;50.784;20.604;2023-04-06T00:36:46;5.10;45.60
43991;DHT22;29654;50.784;20.604;2023-04-06T00:41:51;5.10;45.60
43991;DHT22;29654;50.784;20.604;2023-04-06T00:46:56;5.00;45.70
43991;DHT22;29654;50.784;20.604;2023-04-06T00:51:59;5.00;45.70
43991;DHT22;29654;50.784;20.604;2023-04-06T00:57:03;4.90;45.80
43991;DHT22;29654;50.784;20.604;2023-04-06T01:02:07;4.90;46.00
43991;DHT22;29654;50.784;20.604;2023-04-06T01:07:17;4.90;46.10
43991;DHT22;29654;50.784;20.604;2023-04-06T01:12:35;4.90;46.30
43991;DHT22;29654;50.784;20.604;2023-04-06T01:17:44;5.00;46.40
43991;DHT22;29654;50.784;20.604;2023-04-06T01:22:51;5.10;46.40
43991;DHT22;29654;50.784;20.604;2023-04-06T01:27:55;5.20;46.50
43991;DHT22;29654;50.784;20.604;2023-04-06T01:33:23;5.30;46.50
43991;DHT22;29654;50.784;20.604;2023-04-06T01:38:40;5.40;46.40
43991;DHT22;29654;50.784;20.604;2023-04-06T01:43:44;5.50;46.40
43991;DHT22;29654;50.784;20.604;2023-04-06T01:48:48;5.50;46.20
43991;DHT22;29654;50.784;20.604;2023-04-06T01:53:58;5.50;46.10
43991;DHT22;29654;50.784;20.604;2023-04-06T01:59:20;5.60;46.00
43991;DHT22;29654;50.784;20.604;2023-04-06T02:04:22;5.60;46.00
43991;DHT22;29654;50.784;20.604;2023-04-06T02:09:33;5.50;45.90
43991;DHT22;29654;50.784;20.604;2023-04-06T02:14:37;5.50;45.90
43991;DHT22;29654;50.784;20.604;2023-04-06T02:19:40;5.50;45.90
43991;DHT22;29654;50.784;20.604;2023-04-06T02:24:43;5.50;45.90
43991;DHT22;29654;50.784;20.604;2023-04-06T02:29:47;5.50;45.90
43991;DHT22;29654;50.784;20.604;2023-04-06T02:34:54;5.40;46.00
43991;DHT22;29654;50.784;20.604;2023-04-06T02:39:58;5.40;46.70
43991;DHT22;29654;50.784;20.604;2023-04-06T02:45:02;5.40;46.10
43991;DHT22;29654;50.784;20.604;2023-04-06T02:50:10;5.40;46.10
43991;DHT22;29654;50.784;20.604;2023-04-06T02:55:23;5.40;46.00
43991;DHT22;29654;50.784;20.604;2023-04-06T03:00:26;5.40;46.10
43991;DHT22;29654;50.784;20.604;2023-04-06T03:05:28;5.40;46.00
43991;DHT22;29654;50.784;20.604;2023-04-06T03:10:33;5.40;46.10
43991;DHT22;29654;50.784;20.604;2023-04-06T03:15:36;5.40;46.10
43991;DHT22;29654;50.784;20.604;2023-04-06T03:20:47;5.30;46.10
43991;DHT22;29654;50.784;20.604;2023-04-06T03:25:53;5.30;46.10
43991;DHT22;29654;50.784;20.604;2023-04-06T03:30:56;5.30;46.90
43991;DHT22;29654;50.784;20.604;2023-04-06T03:36:14;5.20;46.20
43991;DHT22;29654;50.784;20.604;2023-04-06T03:41:20;5.20;46.30
43991;DHT22;29654;50.784;20.604;2023-04-06T03:46:37;5.20;46.40
43991;DHT22;29654;50.784;20.604;2023-04-06T03:51:40;5.20;46.50
43991;DHT22;29654;50.784;20.604;2023-04-06T03:56:44;5.20;46.50
43991;DHT22;29654;50.784;20.604;2023-04-06T04:01:47;5.30;46.60
43991;DHT22;29654;50.784;20.604;2023-04-06T04:06:49;5.30;46.50
43991;DHT22;29654;50.784;20.604;2023-04-06T04:11:53;5.20;46.50
43991;DHT22;29654;50.784;20.604;2023-04-06T04:16:56;5.20;46.50
43991;DHT22;29654;50.784;20.604;2023-04-06T04:21:59;5.20;46.60
43991;DHT22;29654;50.784;20.604;2023-04-06T04:27:08;5.20;46.60
43991;DHT22;29654;50.784;20.604;2023-04-06T04:32:12;5.20;46.70
43991;DHT22;29654;50.784;20.604;2023-04-06T04:37:15;5.20;46.60
43991;DHT22;29654;50.784;20.604;2023-04-06T04:42:27;5.20;46.70
43991;DHT22;29654;50.784;20.604;2023-04-06T04:47:32;5.10;46.80
43991;DHT22;29654;50.784;20.604;2023-04-06T04:52:35;5.10;46.80
43991;DHT22;29654;50.784;20.604;2023-04-06T04:57:50;5.10;47.00
43991;DHT22;29654;50.784;20.604;2023-04-06T05:02:58;5.20;47.00
43991;DHT22;29654;50.784;20.604;2023-04-06T05:08:03;5.20;47.00
43991;DHT22;29654;50.784;20.604;2023-04-06T05:13:18;5.20;47.20
43991;DHT22;29654;50.784;20.604;2023-04-06T05:18:22;5.30;47.30
43991;DHT22;29654;50.784;20.604;2023-04-06T05:23:25;5.30;47.30
43991;DHT22;29654;50.784;20.604;2023-04-06T05:28:30;5.30;47.30
43991;DHT22;29654;50.784;20.604;2023-04-06T05:33:33;5.40;47.30
43991;DHT22;29654;50.784;20.604;2023-04-06T05:38:45;5.50;47.40
43991;DHT22;29654;50.784;20.604;2023-04-06T05:44:09;5.50;47.50
43991;DHT22;29654;50.784;20.604;2023-04-06T05:49:14;5.60;47.50
43991;DHT22;29654;50.784;20.604;2023-04-06T05:54:18;5.70;47.50
43991;DHT22;29654;50.784;20.604;2023-04-06T05:59:22;5.90;47.50
43991;DHT22;29654;50.784;20.604;2023-04-06T06:04:25;5.90;47.50
43991;DHT22;29654;50.784;20.604;2023-04-06T06:09:29;6.10;47.50
43991;DHT22;29654;50.784;20.604;2023-04-06T06:14:50;6.20;47.60
43991;DHT22;29654;50.784;20.604;2023-04-06T06:19:54;6.40;47.50
43991;DHT22;29654;50.784;20.604;2023-04-06T06:24:57;6.50;47.50
43991;DHT22;29654;50.784;20.604;2023-04-06T06:30:01;6.70;47.30
43991;DHT22;29654;50.784;20.604;2023-04-06T06:35:06;6.80;47.80
43991;DHT22;29654;50.784;20.604;2023-04-06T06:40:10;6.80;47.20
43991;DHT22;29654;50.784;20.604;2023-04-06T06:45:17;6.90;47.20
43991;DHT22;29654;50.784;20.604;2023-04-06T06:50:21;7.00;47.10
43991;DHT22;29654;50.784;20.604;2023-04-06T06:55:24;7.20;47.00
43991;DHT22;29654;50.784;20.604;2023-04-06T07:00:29;7.20;46.90
43991;DHT22;29654;50.784;20.604;2023-04-06T07:05:32;7.30;46.90
43991;DHT22;29654;50.784;20.604;2023-04-06T07:10:35;7.40;47.00
43991;DHT22;29654;50.784;20.604;2023-04-06T07:15:39;7.40;47.00
43991;DHT22;29654;50.784;20.604;2023-04-06T07:20:41;7.50;46.90
43991;DHT22;29654;50.784;20.604;2023-04-06T07:25:44;7.60;46.90
43991;DHT22;29654;50.784;20.604;2023-04-06T07:30:48;7.70;47.00
43991;DHT22;29654;50.784;20.604;2023-04-06T07:35:52;7.80;47.60
43991;DHT22;29654;50.784;20.604;2023-04-06T07:40:54;7.90;47.00
43991;DHT22;29654;50.784;20.604;2023-04-06T07:45:59;8.00;47.00
43991;DHT22;29654;50.784;20.604;2023-04-06T07:51:02;8.20;46.80
43991;DHT22;29654;50.784;20.604;2023-04-06T07:56:09;8.20;46.60
43991;DHT22;29654;50.784;20.604;2023-04-06T08:01:14;8.20;46.50
43991;DHT22;29654;50.784;20.604;2023-04-06T08:06:17;8.30;46.80
43991;DHT22;29654;50.784;20.604;2023-04-06T08:11:19;8.30;46.80
43991;DHT22;29654;50.784;20.604;2023-04-06T08:16:23;8.30;46.80
43991;DHT22;29654;50.784;20.604;2023-04-06T08:21:26;8.40;46.80
43991;DHT22;29654;50.784;20.604;2023-04-06T08:26:28;8.50;46.70
43991;DHT22;29654;50.784;20.604;2023-04-06T08:31:32;8.50;46.60
43991;DHT22;29654;50.784;20.604;2023-04-06T08:36:35;8.40;46.50
43991;DHT22;29654;50.784;20.604;2023-04-06T08:41:37;8.40;46.70
43991;DHT22;29654;50.784;20.604;2023-04-06T08:46:41;8.40;46.70
43991;DHT22;29654;50.784;20.604;2023-04-06T08:51:44;8.50;46.90
43991;DHT22;29654;50.784;20.604;2023-04-06T08:56:48;8.50;47.00
43991;DHT22;29654;50.784;20.604;2023-04-06T09:01:53;8.60;46.90
43991;DHT22;29654;50.784;20.604;2023-04-06T09:06:56;8.60;46.80
43991;DHT22;29654;50.784;20.604;2023-04-06T09:11:59;8.60;46.70
43991;DHT22;29654;50.784;20.604;2023-04-06T09:17:08;8.50;46.80
43991;DHT22;29654;50.784;20.604;2023-04-06T09:22:10;8.40;47.70
43991;DHT22;29654;50.784;20.604;2023-04-06T09:27:14;8.30;47.30
43991;DHT22;29654;50.784;20.604;2023-04-06T09:32:18;8.20;47.40
43991;DHT22;29654;50.784;20.604;2023-04-06T09:37:21;8.20;47.50
43991;DHT22;29654;50.784;20.604;2023-04-06T09:42:23;8.10;47.60
43991;DHT22;29654;50.784;20.604;2023-04-06T09:47:30;8.00;48.10
43991;DHT22;29654;50.784;20.604;2023-04-06T09:52:38;8.00;48.20
43991;DHT22;29654;50.784;20.604;2023-04-06T09:57:47;7.90;48.40
43991;DHT22;29654;50.784;20.604;2023-04-06T10:02:58;8.00;48.50
43991;DHT22;29654;50.784;20.604;2023-04-06T10:08:06;7.90;48.70
43991;DHT22;29654;50.784;20.604;2023-04-06T10:13:10;7.90;48.90
43991;DHT22;29654;50.784;20.604;2023-04-06T10:18:15;8.00;49.00
43991;DHT22;29654;50.784;20.604;2023-04-06T10:23:21;8.00;49.10
43991;DHT22;29654;50.784;20.604;2023-04-06T10:28:31;8.00;49.40
43991;DHT22;29654;50.784;20.604;2023-04-06T10:33:37;8.10;49.60
43991;DHT22;29654;50.784;20.604;2023-04-06T10:38:42;8.10;49.50
43991;DHT22;29654;50.784;20.604;2023-04-06T10:43:44;8.10;49.50
43991;DHT22;29654;50.784;20.604;2023-04-06T10:48:48;8.10;49.70
43991;DHT22;29654;50.784;20.604;2023-04-06T10:53:53;8.00;49.70
43991;DHT22;29654;50.784;20.604;2023-04-06T10:58:56;8.00;50.00
43991;DHT22;29654;50.784;20.604;2023-04-06T11:04:00;7.90;50.00
43991;DHT22;29654;50.784;20.604;2023-04-06T11:09:03;7.90;50.50
43991;DHT22;29654;50.784;20.604;2023-04-06T11:14:05;7.80;50.20
43991;DHT22;29654;50.784;20.604;2023-04-06T11:19:13;7.80;50.30
43991;DHT22;29654;50.784;20.604;2023-04-06T11:24:17;7.80;50.50
43991;DHT22;29654;50.784;20.604;2023-04-06T11:29:21;7.80;50.60
43991;DHT22;29654;50.784;20.604;2023-04-06T11:34:28;7.80;50.90
43991;DHT22;29654;50.784;20.604;2023-04-06T11:39:31;7.70;50.90
43991;DHT22;29654;50.784;20.604;2023-04-06T11:44:36;7.70;50.90
43991;DHT22;29654;50.784;20.604;2023-04-06T11:49:43;7.70;51.10
43991;DHT22;29654;50.784;20.604;2023-04-06T11:54:47;7.60;51.40
43991;DHT22;29654;50.784;20.604;2023-04-06T11:59:51;7.60;51.50
43991;DHT22;29654;50.784;20.604;2023-04-06T12:04:55;7.60;51.50
43991;DHT22;29654;50.784;20.604;2023-04-06T12:09:58;7.60;51.80
43991;DHT22;29654;50.784;20.604;2023-04-06T12:15:01;7.60;51.70
43991;DHT22;29654;50.784;20.604;2023-04-06T12:20:06;7.70;51.90
43991;DHT22;29654;50.784;20.604;2023-04-06T12:25:09;7.70;52.10
43991;DHT22;29654;50.784;20.604;2023-04-06T12:30:13;7.70;52.00
43991;DHT22;29654;50.784;20.604;2023-04-06T12:35:17;7.70;51.90
43991;DHT22;29654;50.784;20.604;2023-04-06T12:40:20;7.70;52.10
43991;DHT22;29654;50.784;20.604;2023-04-06T12:45:23;7.70;52.20
43991;DHT22;29654;50.784;20.604;2023-04-06T12:50:27;7.80;52.30
43991;DHT22;29654;50.784;20.604;2023-04-06T12:55:30;7.80;52.30
43991;DHT22;29654;50.784;20.604;2023-04-06T13:00:35;7.80;52.10
43991;DHT22;29654;50.784;20.604;2023-04-06T13:05:43;7.80;52.10
43991;DHT22;29654;50.784;20.604;2023-04-06T13:10:47;7.80;52.60
43991;DHT22;29654;50.784;20.604;2023-04-06T13:15:51;7.90;52.30
43991;DHT22;29654;50.784;20.604;2023-04-06T13:20:56;7.90;52.40
43991;DHT22;29654;50.784;20.604;2023-04-06T13:26:00;7.90;52.40
43991;DHT22;29654;50.784;20.604;2023-04-06T13:31:04;7.90;52.50
43991;DHT22;29654;50.784;20.604;2023-04-06T13:36:08;7.80;52.60
43991;DHT22;29654;50.784;20.604;2023-04-06T13:41:19;7.80;52.80
43991;DHT22;29654;50.784;20.604;2023-04-06T13:46:22;7.80;53.30
43991;DHT22;29654;50.784;20.604;2023-04-06T13:51:27;7.80;52.90
43991;DHT22;29654;50.784;20.604;2023-04-06T13:56:29;7.70;52.90
43991;DHT22;29654;50.784;20.604;2023-04-06T14:01:33;7.80;52.90
43991;DHT22;29654;50.784;20.604;2023-04-06T14:06:37;7.80;52.90
43991;DHT22;29654;50.784;20.604;2023-04-06T14:11:40;7.80;53.10
43991;DHT22;29654;50.784;20.604;2023-04-06T14:16:43;7.80;53.10
43991;DHT22;29654;50.784;20.604;2023-04-06T14:21:47;7.80;53.30
43991;DHT22;29654;50.784;20.604;2023-04-06T14:26:50;7.80;53.20
43991;DHT22;29654;50.784;20.604;2023-04-06T14:31:52;7.80;53.10
43991;DHT22;29654;50.784;20.604;2023-04-06T14:37:01;7.90;53.00
43991;DHT22;29654;50.784;20.604;2023-04-06T14:42:04;7.90;53.20
43991;DHT22;29654;50.784;20.604;2023-04-06T14:47:06;8.00;53.20
43991;DHT22;29654;50.784;20.604;2023-04-06T14:52:10;8.00;53.60
43991;DHT22;29654;50.784;20.604;2023-04-06T14:57:13;8.00;53.20
43991;DHT22;29654;50.784;20.604;2023-04-06T15:02:15;8.00;53.10
43991;DHT22;29654;50.784;20.604;2023-04-06T15:07:19;8.00;53.10
43991;DHT22;29654;50.784;20.604;2023-04-06T15:12:22;8.00;53.00
43991;DHT22;29654;50.784;20.604;2023-04-06T15:17:24;8.00;53.00
43991;DHT22;29654;50.784;20.604;2023-04-06T15:22:29;8.00;53.00
43991;DHT22;29654;50.784;20.604;2023-04-06T15:27:31;8.10;53.10
43991;DHT22;29654;50.784;20.604;2023-04-06T15:32:34;8.10;53.20
43991;DHT22;29654;50.784;20.604;2023-04-06T15:37:38;8.20;53.10
43991;DHT22;29654;50.784;20.604;2023-04-06T15:42:41;8.20;53.10
43991;DHT22;29654;50.784;20.604;2023-04-06T15:47:44;8.20;53.00
43991;DHT22;29654;50.784;20.604;2023-04-06T15:52:49;8.20;53.10
43991;DHT22;29654;50.784;20.604;2023-04-06T15:57:51;8.30;53.00
43991;DHT22;29654;50.784;20.604;2023-04-06T16:02:54;8.30;52.90
43991;DHT22;29654;50.784;20.604;2023-04-06T16:07:58;8.30;53.10
43991;DHT22;29654;50.784;20.604;2023-04-06T16:13:01;8.30;53.00
43991;DHT22;29654;50.784;20.604;2023-04-06T16:18:04;8.30;52.90
43991;DHT22;29654;50.784;20.604;2023-04-06T16:23:08;8.30;53.10
43991;DHT22;29654;50.784;20.604;2023-04-06T16:28:11;8.30;53.10
43991;DHT22;29654;50.784;20.604;2023-04-06T16:33:14;8.30;53.00
43991;DHT22;29654;50.784;20.604;2023-04-06T16:38:20;8.30;52.90
43991;DHT22;29654;50.784;20.604;2023-04-06T16:43:23;8.30;53.00
43991;DHT22;29654;50.784;20.604;2023-04-06T16:48:27;8.30;53.00
43991;DHT22;29654;50.784;20.604;2023-04-06T16:53:31;8.20;53.00
43991;DHT22;29654;50.784;20.604;2023-04-06T16:58:33;8.20;53.00
43991;DHT22;29654;50.784;20.604;2023-04-06T17:03:37;8.20;53.10
43991;DHT22;29654;50.784;20.604;2023-04-06T17:08:42;8.20;53.10
43991;DHT22;29654;50.784;20.604;2023-04-06T17:13:47;8.20;53.20
43991;DHT22;29654;50.784;20.604;2023-04-06T17:18:50;8.20;53.20
43991;DHT22;29654;50.784;20.604;2023-04-06T17:23:54;8.20;53.20
43991;DHT22;29654;50.784;20.604;2023-04-06T17:28:57;8.20;53.70
43991;DHT22;29654;50.784;20.604;2023-04-06T17:34:00;8.20;53.40
43991;DHT22;29654;50.784;20.604;2023-04-06T17:39:04;8.20;53.40
43991;DHT22;29654;50.784;20.604;2023-04-06T17:44:06;8.20;53.20
43991;DHT22;29654;50.784;20.604;2023-04-06T17:49:09;8.20;53.30
43991;DHT22;29654;50.784;20.604;2023-04-06T17:54:14;8.20;53.20
43991;DHT22;29654;50.784;20.604;2023-04-06T17:59:17;8.20;53.30
43991;DHT22;29654;50.784;20.604;2023-04-06T18:04:19;8.10;53.30
43991;DHT22;29654;50.784;20.604;2023-04-06T18:09:23;8.20;53.50
43991;DHT22;29654;50.784;20.604;2023-04-06T18:14:26;8.10;53.60
43991;DHT22;29654;50.784;20.604;2023-04-06T18:19:30;8.10;53.50
43991;DHT22;29654;50.784;20.604;2023-04-06T18:24:35;8.10;53.70
43991;DHT22;29654;50.784;20.604;2023-04-06T18:29:38;8.10;53.60
43991;DHT22;29654;50.784;20.604;2023-04-06T18:34:43;8.10;53.50
43991;DHT22;29654;50.784;20.604;2023-04-06T18:39:47;8.10;53.50
43991;DHT22;29654;50.784;20.604;2023-04-06T18:44:50;8.10;53.60
43991;DHT22;29654;50.784;20.604;2023-04-06T18:49:53;8.00;53.60
43991;DHT22;29654;50.784;20.604;2023-04-06T18:54:59;8.00;53.70
43991;DHT22;29654;50.784;20.604;2023-04-06T19:00:02;8.00;53.90
43991;DHT22;29654;50.784;20.604;2023-04-06T19:05:08;8.00;54.00
43991;DHT22;29654;50.784;20.604;2023-04-06T19:10:13;8.10;54.10
43991;DHT22;29654;50.784;20.604;2023-04-06T19:15:15;8.10;53.90
43991;DHT22;29654;50.784;20.604;2023-04-06T19:20:18;8.10;54.00
43991;DHT22;29654;50.784;20.604;2023-04-06T19:25:22;8.10;53.80
43991;DHT22;29654;50.784;20.604;2023-04-06T19:30:25;8.10;54.10
43991;DHT22;29654;50.784;20.604;2023-04-06T19:35:27;8.10;53.90
43991;DHT22;29654;50.784;20.604;2023-04-06T19:40:32;8.10;53.80
43991;DHT22;29654;50.784;20.604;2023-04-06T19:45:34;8.10;53.90
43991;DHT22;29654;50.784;20.604;2023-04-06T19:50:37;8.10;53.90
43991;DHT22;29654;50.784;20.604;2023-04-06T19:55:41;8.10;53.90
43991;DHT22;29654;50.784;20.604;2023-04-06T20:00:43;8.00;54.20
43991;DHT22;29654;50.784;20.604;2023-04-06T20:05:46;8.00;54.30
43991;DHT22;29654;50.784;20.604;2023-04-06T20:10:50;8.00;54.30
43991;DHT22;29654;50.784;20.604;2023-04-06T20:15:53;8.00;54.50
43991;DHT22;29654;50.784;20.604;2023-04-06T20:20:55;8.00;54.60
43991;DHT22;29654;50.784;20.604;2023-04-06T20:25:59;8.10;54.40
43991;DHT22;29654;50.784;20.604;2023-04-06T20:31:02;8.20;54.60
43991;DHT22;29654;50.784;20.604;2023-04-06T20:36:06;8.20;54.50
43991;DHT22;29654;50.784;20.604;2023-04-06T20:41:09;8.20;54.50
43991;DHT22;29654;50.784;20.604;2023-04-06T20:46:14;8.40;54.60
43991;DHT22;29654;50.784;20.604;2023-04-06T20:51:18;8.30;54.40
43991;DHT22;29654;50.784;20.604;2023-04-06T20:56:24;8.40;54.40
43991;DHT22;29654;50.784;20.604;2023-04-06T21:01:26;8.40;54.50
43991;DHT22;29654;50.784;20.604;2023-04-06T21:06:30;8.40;54.30
43991;DHT22;29654;50.784;20.604;2023-04-06T21:11:34;8.40;54.20
43991;DHT22;29654;50.784;20.604;2023-04-06T21:16:37;8.40;54.20
43991;DHT22;29654;50.784;20.604;2023-04-06T21:21:39;8.40;54.20
43991;DHT22;29654;50.784;20.604;2023-04-06T21:26:43;8.40;54.30
43991;DHT22;29654;50.784;20.604;2023-04-06T21:31:46;8.50;54.30
43991;DHT22;29654;50.784;20.604;2023-04-06T21:36:49;8.40;54.30
43991;DHT22;29654;50.784;20.604;2023-04-06T21:41:52;8.40;54.30
43991;DHT22;29654;50.784;20.604;2023-04-06T21:46:56;8.40;54.30
43991;DHT22;29654;50.784;20.604;2023-04-06T21:51:58;8.40;54.40
43991;DHT22;29654;50.784;20.604;2023-04-06T21:57:02;8.40;54.40
43991;DHT22;29654;50.784;20.604;2023-04-06T22:02:05;8.30;54.40
43991;DHT22;29654;50.784;20.604;2023-04-06T22:07:07;8.30;54.50
43991;DHT22;29654;50.784;20.604;2023-04-06T22:12:12;8.30;54.60
43991;DHT22;29654;50.784;20.604;2023-04-06T22:17:15;8.30;54.70
43991;DHT22;29654;50.784;20.604;2023-04-06T22:22:17;8.30;54.70
43991;DHT22;29654;50.784;20.604;2023-04-06T22:27:21;8.20;54.60
43991;DHT22;29654;50.784;20.604;2023-04-06T22:32:24;8.20;54.70
43991;DHT22;29654;50.784;20.604;2023-04-06T22:37:26;8.30;54.70
43991;DHT22;29654;50.784;20.604;2023-04-06T22:42:30;8.20;54.90
43991;DHT22;29654;50.784;20.604;2023-04-06T22:47:33;8.20;55.00
43991;DHT22;29654;50.784;20.604;2023-04-06T22:52:36;8.20;54.90
43991;DHT22;29654;50.784;20.604;2023-04-06T22:57:40;8.30;54.90
43991;DHT22;29654;50.784;20.604;2023-04-06T23:02:42;8.20;54.90
43991;DHT22;29654;50.784;20.604;2023-04-06T23:07:45;8.20;54.80
43991;DHT22;29654;50.784;20.604;2023-04-06T23:12:49;8.30;54.90
43991;DHT22;29654;50.784;20.604;2023-04-06T23:17:51;8.30;55.10
43991;DHT22;29654;50.784;20.604;2023-04-06T23:22:54;8.20;55.00
43991;DHT22;29654;50.784;20.604;2023-04-06T23:27:58;8.20;55.20
43991;DHT22;29654;50.784;20.604;2023-04-06T23:33:01;8.20;55.10
43991;DHT22;29654;50.784;20.604;2023-04-06T23:38:04;8.20;55.10
43991;DHT22;29654;50.784;20.604;2023-04-06T23:43:08;8.30;55.20
43991;DHT22;29654;50.784;20.604;2023-04-06T23:48:10;8.30;55.40
43991;DHT22;29654;50.784;20.604;2023-04-06T23:53:13;8.30;55.20
43991;DHT22;29654;50.784;20.604;2023-04-06T23:58:17;8.20;55.20
